sensor_id;sensor_type;location;lat;lon;timestamp;pressure;altitude;pressure_sealevel;temperature;humidity
3697;BME280;60662;48.810;8.872;2023-02-12T13:06:58;98438.63;;;8.99;68.73
3697;BME280;60662;48.810;8.872;2023-02-12T13:08:27;98437.41;;;8.33;71.09
3697;BME280;60662;48.810;8.872;2023-02-12T13:10:05;98434.59;;;9.50;68.09
3697;BME280;60662;48.810;8.872;2023-02-12T13:11:26;98423.53;;;10.61;65.49
3697;BME280;60662;48.810;8.872;2023-02-12T13:13:45;98428.53;;;12.10;61.94
3697;BME280;60662;48.810;8.872;2023-02-12T13:16:19;98426.19;;;12.71;59.43
3697;BME280;60662;48.810;8.872;2023-02-12T13:19:27;98436.69;;;11.96;59.83
3697;BME280;60662;48.810;8.872;2023-02-12T13:20:42;98423.47;;;12.76;59.09
3697;BME280;60662;48.810;8.872;2023-02-12T13:21:54;98428.88;;;12.70;58.73
3697;BME280;60662;48.810;8.872;2023-02-12T13:27:54;98417.84;;;9.69;65.19
3697;BME280;60662;48.810;8.872;2023-02-12T13:29:05;98424.72;;;9.75;65.94
3697;BME280;60662;48.810;8.872;2023-02-12T13:31:25;98425.28;;;9.99;66.86
3697;BME280;60662;48.810;8.872;2023-02-12T13:32:40;98424.16;;;9.53;67.08
3697;BME280;60662;48.810;8.872;2023-02-12T13:33:47;98419.63;;;10.84;64.24
3697;BME280;60662;48.810;8.872;2023-02-12T13:34:52;98414.78;;;11.56;61.93
3697;BME280;60662;48.810;8.872;2023-02-12T13:35:57;98419.53;;;10.37;63.82
3697;BME280;60662;48.810;8.872;2023-02-12T13:37:02;98427.38;;;9.72;65.82
3697;BME280;60662;48.810;8.872;2023-02-12T13:38:05;98430.09;;;9.64;66.80
3697;BME280;60662;48.810;8.872;2023-02-12T13:39:39;98420.38;;;9.01;68.62
3697;BME280;60662;48.810;8.872;2023-02-12T13:40:41;98414.00;;;9.98;67.08
3697;BME280;60662;48.810;8.872;2023-02-12T13:41:51;98415.72;;;9.97;66.26
3697;BME280;60662;48.810;8.872;2023-02-12T13:42:56;98417.25;;;10.12;65.17
3697;BME280;60662;48.810;8.872;2023-02-12T13:44:18;98416.94;;;10.34;66.31
3697;BME280;60662;48.810;8.872;2023-02-12T13:52:06;98406.63;;;13.18;57.49
3697;BME280;60662;48.810;8.872;2023-02-12T13:53:18;98401.13;;;12.96;57.10
3697;BME280;60662;48.810;8.872;2023-02-12T13:55:05;98402.69;;;12.32;59.29
3697;BME280;60662;48.810;8.872;2023-02-12T13:57:29;98404.63;;;12.60;58.15
3697;BME280;60662;48.810;8.872;2023-02-12T14:01:51;98395.00;;;10.98;62.62
3697;BME280;60662;48.810;8.872;2023-02-12T14:02:53;98395.19;;;11.34;62.74
3697;BME280;60662;48.810;8.872;2023-02-12T14:03:54;98395.00;;;12.61;59.28
3697;BME280;60662;48.810;8.872;2023-02-12T14:06:14;98395.97;;;11.81;59.57
3697;BME280;60662;48.810;8.872;2023-02-12T14:07:17;98399.88;;;11.60;61.06
3697;BME280;60662;48.810;8.872;2023-02-12T14:08:40;98401.22;;;10.90;62.46
3697;BME280;60662;48.810;8.872;2023-02-12T14:09:45;98399.91;;;9.46;66.55
3697;BME280;60662;48.810;8.872;2023-02-12T14:11:08;98398.28;;;10.01;65.86
3697;BME280;60662;48.810;8.872;2023-02-12T14:12:16;98395.13;;;10.40;64.97
3697;BME280;60662;48.810;8.872;2023-02-12T14:13:27;98400.88;;;10.03;65.26
3697;BME280;60662;48.810;8.872;2023-02-12T14:14:38;98392.13;;;10.05;65.93
3697;BME280;60662;48.810;8.872;2023-02-12T14:15:42;98381.19;;;9.80;65.47
3697;BME280;60662;48.810;8.872;2023-02-12T14:16:45;98391.63;;;9.78;66.40
3697;BME280;60662;48.810;8.872;2023-02-12T14:17:55;98400.94;;;9.96;66.37
3697;BME280;60662;48.810;8.872;2023-02-12T14:23:35;98386.00;;;10.09;66.48
3697;BME280;60662;48.810;8.872;2023-02-12T14:25:43;98374.41;;;11.26;63.12
3697;BME280;60662;48.810;8.872;2023-02-12T14:26:47;98381.97;;;11.82;61.59
3697;BME280;60662;48.810;8.872;2023-02-12T14:27:58;98387.44;;;10.82;63.33
3697;BME280;60662;48.810;8.872;2023-02-12T14:29:17;98376.34;;;10.68;63.81
3697;BME280;60662;48.810;8.872;2023-02-12T14:31:36;98377.13;;;9.59;67.13
3697;BME280;60662;48.810;8.872;2023-02-12T14:33:47;98381.19;;;9.78;66.73
3697;BME280;60662;48.810;8.872;2023-02-12T14:34:49;98374.34;;;9.73;67.12
3697;BME280;60662;48.810;8.872;2023-02-12T14:37:09;98376.31;;;9.52;68.25
3697;BME280;60662;48.810;8.872;2023-02-12T14:37:34;98376.56;;;9.99;66.28
3697;BME280;60662;48.810;8.872;2023-02-12T14:39:48;98368.63;;;10.63;65.26
3697;BME280;60662;48.810;8.872;2023-02-12T14:40:50;98374.06;;;11.85;62.32
3697;BME280;60662;48.810;8.872;2023-02-12T14:41:54;98371.06;;;12.04;61.55
3697;BME280;60662;48.810;8.872;2023-02-12T14:43:35;98372.84;;;11.61;61.09
3697;BME280;60662;48.810;8.872;2023-02-12T14:44:57;98381.19;;;11.79;61.87
3697;BME280;60662;48.810;8.872;2023-02-12T14:49:52;98378.31;;;12.65;59.02
3697;BME280;60662;48.810;8.872;2023-02-12T14:50:56;98372.41;;;13.22;57.04
3697;BME280;60662;48.810;8.872;2023-02-12T14:52:01;98376.38;;;11.99;60.07
3697;BME280;60662;48.810;8.872;2023-02-12T14:53:33;98375.59;;;13.34;57.33
3697;BME280;60662;48.810;8.872;2023-02-12T14:54:47;98376.94;;;12.84;57.94
3697;BME280;60662;48.810;8.872;2023-02-12T14:55:50;98378.31;;;13.62;56.56
3697;BME280;60662;48.810;8.872;2023-02-12T14:56:52;98372.66;;;13.76;55.23
3697;BME280;60662;48.810;8.872;2023-02-12T14:57:58;98371.91;;;14.01;55.02
3697;BME280;60662;48.810;8.872;2023-02-12T14:59:02;98377.59;;;13.57;55.17
3697;BME280;60662;48.810;8.872;2023-02-12T15:00:20;98370.22;;;13.07;56.73
3697;BME280;60662;48.810;8.872;2023-02-12T15:01:34;98374.13;;;13.57;55.93
3697;BME280;60662;48.810;8.872;2023-02-12T15:02:38;98370.63;;;13.86;55.39
3697;BME280;60662;48.810;8.872;2023-02-12T15:03:47;98372.19;;;12.99;56.89
3697;BME280;60662;48.810;8.872;2023-02-12T15:04:50;98375.31;;;12.44;58.19
3697;BME280;60662;48.810;8.872;2023-02-12T15:06:21;98369.31;;;12.40;58.07
3697;BME280;60662;48.810;8.872;2023-02-12T15:07:32;98368.72;;;12.98;57.99
3697;BME280;60662;48.810;8.872;2023-02-12T15:08:45;98372.00;;;12.72;58.72
3697;BME280;60662;48.810;8.872;2023-02-12T15:10:12;98366.28;;;12.21;59.26
3697;BME280;60662;48.810;8.872;2023-02-12T15:11:42;98369.47;;;12.33;58.95
3697;BME280;60662;48.810;8.872;2023-02-12T15:12:53;98367.03;;;11.86;59.32
3697;BME280;60662;48.810;8.872;2023-02-12T15:14:21;98368.44;;;12.40;58.99
3697;BME280;60662;48.810;8.872;2023-02-12T15:15:31;98364.44;;;13.27;57.15
3697;BME280;60662;48.810;8.872;2023-02-12T15:16:43;98363.13;;;13.44;56.14
3697;BME280;60662;48.810;8.872;2023-02-12T15:20:33;98371.75;;;11.71;59.69
3697;BME280;60662;48.810;8.872;2023-02-12T15:21:37;98363.84;;;11.32;60.96
3697;BME280;60662;48.810;8.872;2023-02-12T15:22:39;98372.78;;;12.03;60.36
3697;BME280;60662;48.810;8.872;2023-02-12T15:23:43;98362.31;;;12.03;59.30
3697;BME280;60662;48.810;8.872;2023-02-12T15:24:44;98365.00;;;11.19;61.99
3697;BME280;60662;48.810;8.872;2023-02-12T15:25:49;98370.59;;;12.24;59.92
3697;BME280;60662;48.810;8.872;2023-02-12T15:26:56;98365.81;;;12.04;59.36
3697;BME280;60662;48.810;8.872;2023-02-12T15:28:00;98371.34;;;11.90;60.04
3697;BME280;60662;48.810;8.872;2023-02-12T15:29:03;98364.09;;;12.40;59.13
3697;BME280;60662;48.810;8.872;2023-02-12T15:30:05;98361.94;;;12.89;58.00
3697;BME280;60662;48.810;8.872;2023-02-12T15:31:14;98366.97;;;12.64;57.56
3697;BME280;60662;48.810;8.872;2023-02-12T15:32:28;98367.38;;;13.15;57.09
3697;BME280;60662;48.810;8.872;2023-02-12T15:33:32;98364.75;;;13.48;56.44
3697;BME280;60662;48.810;8.872;2023-02-12T15:34:36;98361.09;;;13.53;56.12
3697;BME280;60662;48.810;8.872;2023-02-12T15:35:43;98364.56;;;12.20;58.85
3697;BME280;60662;48.810;8.872;2023-02-12T15:36:45;98363.47;;;12.98;57.73
3697;BME280;60662;48.810;8.872;2023-02-12T15:37:48;98353.16;;;13.23;56.71
3697;BME280;60662;48.810;8.872;2023-02-12T15:39:04;98360.53;;;12.41;58.75
3697;BME280;60662;48.810;8.872;2023-02-12T15:40:13;98353.44;;;13.13;57.24
3697;BME280;60662;48.810;8.872;2023-02-12T15:41:36;98353.88;;;13.29;56.61
3697;BME280;60662;48.810;8.872;2023-02-12T15:42:38;98352.53;;;13.14;56.95
3697;BME280;60662;48.810;8.872;2023-02-12T15:43:42;98349.44;;;12.99;56.95
3697;BME280;60662;48.810;8.872;2023-02-12T15:44:44;98364.66;;;13.19;56.86
3697;BME280;60662;48.810;8.872;2023-02-12T15:45:50;98352.09;;;12.30;59.05
3697;BME280;60662;48.810;8.872;2023-02-12T15:46:56;98354.69;;;12.99;57.57
3697;BME280;60662;48.810;8.872;2023-02-12T15:49:18;98357.13;;;12.74;57.76
3697;BME280;60662;48.810;8.872;2023-02-12T15:50:22;98356.81;;;12.85;57.65
3697;BME280;60662;48.810;8.872;2023-02-12T15:51:36;98354.44;;;12.76;57.56
3697;BME280;60662;48.810;8.872;2023-02-12T15:52:44;98356.28;;;12.00;58.77
3697;BME280;60662;48.810;8.872;2023-02-12T15:53:46;98353.91;;;12.28;58.99
3697;BME280;60662;48.810;8.872;2023-02-12T15:54:48;98358.47;;;12.56;58.34
3697;BME280;60662;48.810;8.872;2023-02-12T15:55:50;98359.94;;;12.66;57.97
3697;BME280;60662;48.810;8.872;2023-02-12T15:56:53;98358.53;;;12.17;58.89
3697;BME280;60662;48.810;8.872;2023-02-12T15:57:57;98357.88;;;12.45;58.81
3697;BME280;60662;48.810;8.872;2023-02-12T15:59:01;98362.25;;;12.77;58.27
3697;BME280;60662;48.810;8.872;2023-02-12T16:00:06;98367.19;;;12.89;58.10
3697;BME280;60662;48.810;8.872;2023-02-12T16:01:17;98359.78;;;13.05;57.87
3697;BME280;60662;48.810;8.872;2023-02-12T16:02:28;98368.22;;;12.84;57.48
3697;BME280;60662;48.810;8.872;2023-02-12T16:03:31;98355.81;;;12.20;58.70
3697;BME280;60662;48.810;8.872;2023-02-12T16:04:33;98365.06;;;11.99;59.55
3697;BME280;60662;48.810;8.872;2023-02-12T16:05:40;98355.03;;;12.16;59.07
3697;BME280;60662;48.810;8.872;2023-02-12T16:06:42;98352.59;;;12.10;59.08
3697;BME280;60662;48.810;8.872;2023-02-12T16:07:44;98346.88;;;11.52;60.52
3697;BME280;60662;48.810;8.872;2023-02-12T16:09:16;98357.22;;;11.58;60.63
3697;BME280;60662;48.810;8.872;2023-02-12T16:10:18;98348.44;;;11.59;60.54
3697;BME280;60662;48.810;8.872;2023-02-12T16:11:21;98343.47;;;11.48;60.69
3697;BME280;60662;48.810;8.872;2023-02-12T16:12:28;98351.56;;;11.76;60.33
3697;BME280;60662;48.810;8.872;2023-02-12T16:13:33;98351.72;;;11.69;60.53
3697;BME280;60662;48.810;8.872;2023-02-12T16:14:44;98340.59;;;11.59;60.47
3697;BME280;60662;48.810;8.872;2023-02-12T16:16:02;98348.09;;;11.35;61.19
3697;BME280;60662;48.810;8.872;2023-02-12T16:18:27;98350.47;;;11.46;60.88
3697;BME280;60662;48.810;8.872;2023-02-12T16:19:32;98349.03;;;11.33;61.21
3697;BME280;60662;48.810;8.872;2023-02-12T16:20:37;98348.34;;;11.23;61.45
3697;BME280;60662;48.810;8.872;2023-02-12T16:21:38;98354.25;;;11.33;61.27
3697;BME280;60662;48.810;8.872;2023-02-12T16:22:41;98345.38;;;10.48;62.99
3697;BME280;60662;48.810;8.872;2023-02-12T16:23:46;98350.50;;;10.52;63.21
3697;BME280;60662;48.810;8.872;2023-02-12T16:24:50;98336.66;;;10.47;63.56
3697;BME280;60662;48.810;8.872;2023-02-12T16:25:53;98353.38;;;10.35;63.95
3697;BME280;60662;48.810;8.872;2023-02-12T16:26:57;98357.06;;;10.23;64.51
3697;BME280;60662;48.810;8.872;2023-02-12T16:28:16;98354.88;;;9.95;65.02
3697;BME280;60662;48.810;8.872;2023-02-12T16:29:21;98363.59;;;9.29;66.89
3697;BME280;60662;48.810;8.872;2023-02-12T16:30:26;98360.84;;;9.41;67.21
